Time;durP1;ratioP1;P1;durP2;ratioP2;P2;SDS_P1;SDS_P2;PMS_P1;PMS_P2;Temp;Humidity;BMP_temperature;BMP_pressure;BME280_temperature;BME280_humidity;BME280_pressure;Samples;Min_cycle;Max_cycle;Signal;HPM_P1;HPM_P2
2022/10/06 00:01:05;;;;;;;0.80;0.60;;;15.10;99.90;;;;;;5024019;28;20230;-84
2022/10/06 00:03:32;;;;;;;2.50;0.70;;;15.10;99.90;;;;;;5017394;28;20382;-85
2022/10/06 00:06:00;;;;;;;0.60;0.57;;;15.00;99.90;;;;;;5037945;28;20234;-85
2022/10/06 00:08:27;;;;;;;2.67;0.60;;;15.00;99.90;;;;;;5023640;28;20233;-85
2022/10/06 00:10:55;;;;;;;1.17;0.67;;;15.00;99.90;;;;;;5022122;28;20238;-85
2022/10/06 00:13:24;;;;;;;0.70;0.60;;;14.90;99.90;;;;;;5022715;28;20226;-83
2022/10/06 00:15:51;;;;;;;1.37;0.60;;;14.90;99.90;;;;;;5022340;28;20983;-83
2022/10/06 00:18:18;;;;;;;1.17;0.40;;;14.90;99.90;;;;;;5025116;28;20232;-84
2022/10/06 00:20:44;;;;;;;1.00;0.50;;;14.90;99.90;;;;;;5041243;28;20230;-83
2022/10/06 00:23:11;;;;;;;1.40;0.67;;;14.90;99.90;;;;;;5045664;22;20206;-83
2022/10/06 00:25:38;;;;;;;0.70;0.60;;;14.80;99.90;;;;;;5055523;28;20220;-83
2022/10/06 00:28:04;;;;;;;1.43;0.63;;;14.80;99.90;;;;;;5057480;28;20230;-85
2022/10/06 00:30:32;;;;;;;1.07;0.53;;;14.80;99.90;;;;;;5058286;28;20673;-84
2022/10/06 00:33:01;;;;;;;1.33;0.60;;;14.80;99.90;;;;;;5056555;28;20308;-86
2022/10/06 00:35:32;;;;;;;1.13;0.60;;;14.70;99.90;;;;;;5059017;28;20557;-85
2022/10/06 00:37:58;;;;;;;2.33;0.43;;;14.70;99.90;;;;;;5059311;28;20238;-85
2022/10/06 00:40:26;;;;;;;1.07;0.50;;;14.70;99.90;;;;;;5051927;28;20253;-86
2022/10/06 00:42:55;;;;;;;0.87;0.53;;;14.70;99.90;;;;;;5059301;28;20889;-86
2022/10/06 00:45:29;;;;;;;0.70;0.70;;;14.60;99.90;;;;;;5053030;28;20221;-87
2022/10/06 00:48:03;;;;;;;1.23;0.50;;;14.60;99.90;;;;;;5056066;28;20226;-86
2022/10/06 00:50:30;;;;;;;0.50;0.50;;;14.60;99.90;;;;;;5062694;28;20317;-86
2022/10/06 00:52:58;;;;;;;0.77;0.47;;;14.60;99.90;;;;;;5058317;28;20229;-86
2022/10/06 00:55:25;;;;;;;1.17;0.60;;;14.60;99.90;;;;;;5049497;28;20239;-86
2022/10/06 00:57:52;;;;;;;1.13;0.40;;;14.60;99.90;;;;;;5059163;28;20240;-86
2022/10/06 01:00:19;;;;;;;1.93;0.50;;;14.50;99.90;;;;;;5048667;28;21334;-86
2022/10/06 01:02:56;;;;;;;2.60;0.57;;;14.50;99.90;;;;;;5053124;28;20221;-86
2022/10/06 01:05:29;;;;;;;1.60;0.47;;;14.50;99.90;;;;;;5054391;28;20544;-87
2022/10/06 01:07:56;;;;;;;2.23;0.50;;;14.50;99.90;;;;;;5062438;28;20750;-88
2022/10/06 01:10:23;;;;;;;1.37;0.60;;;14.40;99.90;;;;;;5060206;28;20228;-85
2022/10/06 01:12:50;;;;;;;1.23;0.40;;;14.40;99.90;;;;;;5052788;28;20223;-86
2022/10/06 01:15:18;;;;;;;1.83;0.50;;;14.40;99.90;;;;;;5073262;28;20638;-87
2022/10/06 01:17:49;;;;;;;1.60;0.50;;;14.40;99.90;;;;;;5059314;28;20308;-87
2022/10/06 01:20:19;;;;;;;1.30;0.87;;;14.40;99.90;;;;;;5054803;28;20238;-86
2022/10/06 01:22:50;;;;;;;1.27;0.60;;;14.30;99.90;;;;;;5052369;28;20264;-86
2022/10/06 01:25:19;;;;;;;2.83;0.50;;;14.30;99.90;;;;;;5053934;28;20272;-86
2022/10/06 01:27:52;;;;;;;1.87;0.57;;;14.30;99.90;;;;;;5059284;28;20302;-86
2022/10/06 01:30:25;;;;;;;0.93;0.47;;;14.20;99.90;;;;;;5054870;28;20216;-86
2022/10/06 01:32:52;;;;;;;0.67;0.37;;;14.20;99.90;;;;;;5058435;28;21449;-87
2022/10/06 01:35:24;;;;;;;1.83;0.60;;;14.10;99.90;;;;;;5055589;28;20222;-86
2022/10/06 01:37:57;;;;;;;0.97;0.60;;;14.10;99.90;;;;;;5054643;28;20232;-85
2022/10/06 01:40:27;;;;;;;1.80;0.50;;;14.00;99.90;;;;;;5049143;28;20575;-85
2022/10/06 01:42:55;;;;;;;1.50;0.40;;;14.00;99.90;;;;;;5054419;28;20295;-85
2022/10/06 01:45:25;;;;;;;1.53;0.60;;;13.90;99.90;;;;;;5055671;28;20286;-84
2022/10/06 01:47:52;;;;;;;1.93;0.50;;;13.80;99.90;;;;;;5050783;28;20790;-85
2022/10/06 01:50:19;;;;;;;1.80;0.60;;;13.70;99.90;;;;;;5054853;28;21728;-86
2022/10/06 01:52:45;;;;;;;1.57;0.60;;;13.70;99.90;;;;;;5051146;28;20308;-85
2022/10/06 01:55:16;;;;;;;3.23;0.60;;;13.60;99.90;;;;;;5048632;28;20281;-85
2022/10/06 01:57:43;;;;;;;1.90;0.63;;;13.60;99.90;;;;;;5057813;28;20317;-84
2022/10/06 02:00:12;;;;;;;0.87;0.50;;;13.50;99.90;;;;;;5059443;28;20275;-85
2022/10/06 02:02:43;;;;;;;1.30;0.73;;;13.50;99.90;;;;;;5056296;28;20583;-85
2022/10/06 02:05:10;;;;;;;3.77;1.00;;;13.40;99.90;;;;;;5058338;28;20555;-84
2022/10/06 02:07:40;;;;;;;3.10;0.90;;;13.30;99.90;;;;;;5060973;28;20236;-85
2022/10/06 02:10:08;;;;;;;1.17;0.70;;;13.30;99.90;;;;;;5059610;28;20227;-86
2022/10/06 02:12:36;;;;;;;2.27;0.90;;;13.30;99.90;;;;;;5056138;28;20234;-86
2022/10/06 02:15:05;;;;;;;0.83;0.50;;;13.20;99.90;;;;;;5053446;28;20262;-87
2022/10/06 02:17:32;;;;;;;2.93;1.17;;;13.20;99.90;;;;;;5069362;28;20544;-87
2022/10/06 02:19:58;;;;;;;2.07;0.87;;;13.10;99.90;;;;;;5059985;28;20222;-86
2022/10/06 02:22:27;;;;;;;2.00;0.60;;;13.10;99.90;;;;;;5060502;28;20224;-87
2022/10/06 02:24:53;;;;;;;2.40;0.80;;;13.00;99.90;;;;;;5058850;28;20775;-86
2022/10/06 02:27:20;;;;;;;1.27;0.63;;;13.00;99.90;;;;;;5060011;28;20309;-86
2022/10/06 02:29:49;;;;;;;2.97;0.80;;;13.00;99.90;;;;;;5056695;28;20927;-86
2022/10/06 02:32:16;;;;;;;2.97;0.60;;;13.00;99.90;;;;;;5057661;28;20623;-85
2022/10/06 02:34:43;;;;;;;2.73;0.83;;;12.90;99.90;;;;;;5057580;28;20704;-86
2022/10/06 02:37:14;;;;;;;1.63;0.70;;;12.90;99.90;;;;;;5056243;28;20227;-84
2022/10/06 02:39:41;;;;;;;1.87;0.73;;;12.80;99.90;;;;;;5055627;28;20296;-85
2022/10/06 02:42:08;;;;;;;3.97;1.00;;;12.80;99.90;;;;;;5056203;28;21054;-85
2022/10/06 02:44:38;;;;;;;7.60;1.73;;;12.80;99.90;;;;;;5054391;28;20234;-87
2022/10/06 02:47:11;;;;;;;2.17;0.90;;;12.80;99.90;;;;;;5055221;28;20602;-87
2022/10/06 02:49:38;;;;;;;1.97;0.80;;;12.80;99.90;;;;;;5059760;28;20217;-86
2022/10/06 02:52:04;;;;;;;3.53;0.70;;;12.80;99.90;;;;;;5055052;28;20363;-85
2022/10/06 02:54:32;;;;;;;1.90;0.97;;;12.90;99.90;;;;;;5055082;28;20230;-84
2022/10/06 02:56:59;;;;;;;4.03;0.90;;;12.90;99.90;;;;;;5060863;28;20868;-85
2022/10/06 02:59:26;;;;;;;5.57;1.07;;;12.80;99.90;;;;;;5053237;28;20221;-84
2022/10/06 03:01:53;;;;;;;4.27;0.93;;;12.90;99.90;;;;;;5055909;28;20241;-84
2022/10/06 03:04:21;;;;;;;3.47;0.87;;;12.90;99.90;;;;;;5054088;28;20667;-86
2022/10/06 03:06:49;;;;;;;2.53;0.80;;;12.90;99.90;;;;;;5057478;28;20215;-86
2022/10/06 03:09:18;;;;;;;4.20;1.20;;;12.90;99.90;;;;;;5055008;28;20320;-86
2022/10/06 03:11:46;;;;;;;2.10;1.20;;;12.90;99.90;;;;;;5058438;28;20657;-86
2022/10/06 03:14:17;;;;;;;5.57;1.30;;;12.90;99.90;;;;;;5054437;28;20224;-87
2022/10/06 03:16:44;;;;;;;4.43;1.00;;;12.90;99.90;;;;;;5057664;28;20695;-86
2022/10/06 03:19:22;;;;;;;4.80;1.20;;;12.90;99.90;;;;;;5060425;28;20233;-87
2022/10/06 03:21:49;;;;;;;4.40;1.27;;;12.80;99.90;;;;;;5054910;28;20223;-87
2022/10/06 03:24:17;;;;;;;4.83;1.10;;;12.80;99.90;;;;;;5060482;28;20224;-85
2022/10/06 03:26:47;;;;;;;6.60;1.33;;;12.70;99.90;;;;;;5051615;28;20306;-85
2022/10/06 03:29:16;;;;;;;3.93;1.33;;;12.70;99.90;;;;;;5045638;28;20287;-86
2022/10/06 03:31:46;;;;;;;5.60;1.17;;;12.70;99.90;;;;;;5044857;28;20892;-85
2022/10/06 03:34:14;;;;;;;6.33;1.50;;;12.60;99.90;;;;;;5048740;28;20303;-86
2022/10/06 03:36:42;;;;;;;5.00;1.20;;;12.60;99.90;;;;;;5051901;28;20246;-85
2022/10/06 03:39:09;;;;;;;2.73;1.13;;;12.60;99.90;;;;;;5058512;28;21195;-86
2022/10/06 03:41:38;;;;;;;4.13;1.27;;;12.50;99.90;;;;;;5060498;28;20744;-85
2022/10/06 03:44:06;;;;;;;2.87;1.07;;;12.50;99.90;;;;;;5054916;28;20275;-86
2022/10/06 03:46:36;;;;;;;4.47;1.10;;;12.50;99.90;;;;;;5058453;28;20225;-86
2022/10/06 03:49:05;;;;;;;5.97;1.33;;;12.40;99.90;;;;;;5058005;28;20631;-86
2022/10/06 03:51:35;;;;;;;5.87;1.40;;;12.40;99.90;;;;;;5052539;28;20223;-86
2022/10/06 03:54:03;;;;;;;2.93;1.10;;;12.40;99.90;;;;;;5059329;28;20231;-86
2022/10/06 03:56:33;;;;;;;5.23;1.47;;;12.40;99.90;;;;;;5055065;28;20316;-85
2022/10/06 03:59:02;;;;;;;4.40;1.20;;;12.40;99.90;;;;;;5052215;28;20229;-86
2022/10/06 04:01:31;;;;;;;3.87;1.10;;;12.30;99.90;;;;;;5052999;28;20229;-84
2022/10/06 04:04:01;;;;;;;3.70;1.43;;;12.30;99.90;;;;;;5054711;28;20246;-87
2022/10/06 04:06:31;;;;;;;6.70;1.60;;;12.20;99.90;;;;;;5054049;28;20235;-86
2022/10/06 04:08:58;;;;;;;6.77;1.90;;;12.20;99.90;;;;;;5061500;28;21191;-86
2022/10/06 04:11:29;;;;;;;11.73;1.83;;;12.20;99.90;;;;;;5060174;28;20422;-87
2022/10/06 04:13:58;;;;;;;6.80;1.70;;;12.10;99.90;;;;;;5056515;28;20763;-89
2022/10/06 04:16:29;;;;;;;6.83;1.43;;;12.10;99.90;;;;;;5061668;28;20285;-94
2022/10/06 04:18:58;;;;;;;7.93;1.30;;;12.10;99.90;;;;;;5064689;28;20219;-91
2022/10/06 04:21:26;;;;;;;7.43;1.60;;;12.00;99.90;;;;;;5059686;28;20231;-87
2022/10/06 04:23:55;;;;;;;8.37;1.50;;;12.00;99.90;;;;;;5061833;28;20500;-88
2022/10/06 04:26:30;;;;;;;7.90;1.83;;;11.90;99.90;;;;;;5055462;28;20248;-90
2022/10/06 04:28:57;;;;;;;6.27;1.83;;;11.90;99.90;;;;;;5061496;28;20228;-88
2022/10/06 04:31:26;;;;;;;5.83;1.53;;;11.90;99.90;;;;;;5060741;28;20327;-89
2022/10/06 04:33:54;;;;;;;8.33;1.90;;;11.90;99.90;;;;;;5061162;28;20228;-88
2022/10/06 04:36:23;;;;;;;6.63;1.50;;;11.80;99.90;;;;;;5062014;28;20548;-85
2022/10/06 04:38:55;;;;;;;5.03;2.13;;;11.80;99.90;;;;;;5061187;28;20231;-87
2022/10/06 04:41:24;;;;;;;6.17;1.77;;;11.80;99.90;;;;;;5059390;28;20223;-82
2022/10/06 04:43:53;;;;;;;5.50;1.20;;;11.80;99.90;;;;;;5060309;28;20231;-83
2022/10/06 04:46:24;;;;;;;5.67;1.70;;;11.70;99.90;;;;;;5054092;28;20314;-83
2022/10/06 04:48:52;;;;;;;9.77;1.70;;;11.70;99.90;;;;;;5065622;28;20265;-83
2022/10/06 04:51:20;;;;;;;7.33;1.63;;;11.70;99.90;;;;;;5056121;28;20224;-83
2022/10/06 04:53:48;;;;;;;7.37;1.77;;;11.70;99.90;;;;;;5054622;28;20250;-83
2022/10/06 04:56:18;;;;;;;6.20;2.00;;;11.70;99.90;;;;;;5062424;28;20223;-84
2022/10/06 04:58:48;;;;;;;8.47;1.70;;;11.70;99.90;;;;;;5056448;28;20309;-83
2022/10/06 05:01:17;;;;;;;7.73;1.47;;;11.60;99.90;;;;;;5059103;28;20291;-83
2022/10/06 05:03:46;;;;;;;6.43;1.90;;;11.70;99.90;;;;;;5057471;28;20219;-85
2022/10/06 05:06:16;;;;;;;8.53;1.93;;;11.60;99.90;;;;;;5055100;28;20287;-81
2022/10/06 05:08:47;;;;;;;9.30;2.27;;;11.60;99.90;;;;;;5060587;28;20224;-82
2022/10/06 05:11:14;;;;;;;7.23;1.60;;;11.60;99.90;;;;;;5062920;28;20251;-81
2022/10/06 05:13:41;;;;;;;8.57;2.03;;;11.50;99.90;;;;;;5063250;28;20216;-80
2022/10/06 05:16:13;;;;;;;8.30;1.70;;;11.50;99.90;;;;;;5065402;28;20234;-80
2022/10/06 05:18:42;;;;;;;5.03;1.73;;;11.40;99.90;;;;;;5061875;28;20661;-80
2022/10/06 05:21:12;;;;;;;7.87;2.33;;;11.50;99.90;;;;;;5069123;28;20799;-80
2022/10/06 05:23:41;;;;;;;5.83;1.50;;;11.40;99.90;;;;;;5061479;28;20292;-80
2022/10/06 05:26:10;;;;;;;9.67;2.00;;;11.40;99.90;;;;;;5059891;28;20239;-80
2022/10/06 05:28:36;;;;;;;9.33;2.07;;;11.40;99.90;;;;;;5060470;28;20521;-80
2022/10/06 05:31:06;;;;;;;10.40;2.30;;;11.40;99.90;;;;;;5055289;28;20426;-81
2022/10/06 05:33:35;;;;;;;7.63;1.77;;;11.40;99.90;;;;;;5063427;28;20668;-81
2022/10/06 05:36:06;;;;;;;6.77;2.23;;;11.30;99.90;;;;;;5066052;28;20322;-81
2022/10/06 05:38:34;;;;;;;5.40;1.47;;;11.30;99.90;;;;;;5060457;28;20251;-81
2022/10/06 05:41:02;;;;;;;6.97;2.13;;;11.30;99.90;;;;;;5063441;28;20220;-82
2022/10/06 05:43:29;;;;;;;10.67;2.17;;;11.30;99.90;;;;;;5052472;28;20365;-82
2022/10/06 05:45:58;;;;;;;7.47;2.10;;;11.30;99.90;;;;;;5071351;28;20692;-82
2022/10/06 05:48:25;;;;;;;8.13;1.63;;;11.30;99.90;;;;;;5061598;28;20231;-81
2022/10/06 05:50:58;;;;;;;9.77;1.80;;;11.30;99.90;;;;;;5066954;28;20228;-81
2022/10/06 05:53:26;;;;;;;9.07;2.43;;;11.20;99.90;;;;;;5063657;28;20290;-81
2022/10/06 05:56:03;;;;;;;6.77;1.73;;;11.20;99.90;;;;;;5059530;28;20283;-85
2022/10/06 05:58:30;;;;;;;12.40;2.20;;;11.20;99.90;;;;;;5058395;28;20290;-84
2022/10/06 06:01:05;;;;;;;11.03;1.80;;;11.20;99.90;;;;;;5057560;28;20757;-84
2022/10/06 06:03:38;;;;;;;6.77;1.60;;;11.20;99.90;;;;;;5056631;28;20243;-85
2022/10/06 06:06:15;;;;;;;6.57;1.80;;;11.20;99.90;;;;;;5054796;28;20224;-85
2022/10/06 06:08:44;;;;;;;7.17;1.80;;;11.20;99.90;;;;;;5053977;28;20269;-85
2022/10/06 06:11:12;;;;;;;7.57;1.83;;;11.20;99.90;;;;;;5055374;28;20766;-85
2022/10/06 06:13:38;;;;;;;5.83;1.80;;;11.20;99.90;;;;;;5060526;28;20482;-85
2022/10/06 06:16:13;;;;;;;7.97;2.27;;;11.10;99.90;;;;;;5058929;28;20240;-84
2022/10/06 06:18:40;;;;;;;6.13;1.67;;;11.20;99.90;;;;;;5054652;28;20742;-85
2022/10/06 06:21:10;;;;;;;7.83;2.00;;;11.20;99.90;;;;;;5049886;28;20220;-84
2022/10/06 06:23:39;;;;;;;10.70;2.33;;;11.20;99.90;;;;;;5045782;28;20294;-85
2022/10/06 06:26:10;;;;;;;8.63;1.87;;;11.20;99.90;;;;;;5050519;28;20648;-83
2022/10/06 06:28:42;;;;;;;11.17;2.10;;;11.20;99.90;;;;;;5051683;22;20234;-87
2022/10/06 06:31:12;;;;;;;7.70;1.70;;;11.30;99.90;;;;;;5035916;28;20221;-87
2022/10/06 06:33:41;;;;;;;10.47;1.90;;;11.30;99.90;;;;;;5033655;28;20241;-88
2022/10/06 06:36:13;;;;;;;10.80;2.13;;;11.30;99.90;;;;;;5033635;28;20243;-89
2022/10/06 06:38:40;;;;;;;7.17;1.70;;;11.30;99.90;;;;;;5011099;28;21576;-86
2022/10/06 06:41:14;;;;;;;8.67;1.83;;;11.30;99.90;;;;;;5012315;28;20315;-88
2022/10/06 06:43:42;;;;;;;9.67;1.60;;;11.40;99.90;;;;;;5015868;28;20229;-86
2022/10/06 06:46:30;;;;;;;10.90;3.10;;;11.40;99.90;;;;;;5011516;28;20338;-88
2022/10/06 06:49:07;;;;;;;7.90;2.00;;;11.40;99.90;;;;;;5015016;28;20228;-86
2022/10/06 06:51:40;;;;;;;9.67;2.10;;;11.50;99.90;;;;;;5011738;28;20236;-87
2022/10/06 06:54:08;;;;;;;8.07;2.03;;;11.50;99.90;;;;;;5012922;28;20225;-87
2022/10/06 06:56:41;;;;;;;6.83;1.63;;;11.50;99.90;;;;;;5011445;28;20226;-86
2022/10/06 06:59:10;;;;;;;12.73;2.20;;;11.50;99.90;;;;;;5019047;28;20249;-87
2022/10/06 07:01:43;;;;;;;8.80;2.13;;;11.50;99.90;;;;;;5015469;28;20216;-92
2022/10/06 07:04:13;;;;;;;8.03;2.20;;;11.60;99.90;;;;;;5023701;28;20316;-89
2022/10/06 07:06:55;;;;;;;16.10;2.60;;;11.60;99.90;;;;;;5014758;28;20221;-89
2022/10/06 07:09:22;;;;;;;8.20;2.20;;;11.60;99.90;;;;;;5024066;28;20596;-89
2022/10/06 07:11:51;;;;;;;12.27;2.33;;;11.70;99.90;;;;;;5019364;28;20311;-89
2022/10/06 07:14:23;;;;;;;8.80;2.10;;;11.70;99.90;;;;;;5017483;28;20232;-89
2022/10/06 07:25:17;;;;;;;10.00;1.90;;;11.80;99.90;;;;;;5019065;28;21640;-87
2022/10/06 07:27:50;;;;;;;8.83;2.23;;;11.90;99.90;;;;;;5016916;28;20220;-87
2022/10/06 07:30:22;;;;;;;10.23;2.07;;;11.90;99.90;;;;;;5019453;28;20233;-89
2022/10/06 07:32:55;;;;;;;5.90;1.90;;;11.90;99.90;;;;;;5017566;28;20220;-89
2022/10/06 07:35:24;;;;;;;9.70;2.10;;;12.00;99.90;;;;;;5022912;28;20707;-88
2022/10/06 07:37:52;;;;;;;11.27;2.37;;;12.00;99.90;;;;;;5020329;28;20228;-89
2022/10/06 07:40:21;;;;;;;8.50;2.00;;;12.00;99.90;;;;;;5019797;28;20977;-89
2022/10/06 07:42:50;;;;;;;6.40;1.90;;;12.10;99.90;;;;;;5017459;28;20230;-87
2022/10/06 07:45:40;;;;;;;8.73;2.00;;;12.10;99.90;;;;;;5021906;28;20234;-87
2022/10/06 07:48:13;;;;;;;7.90;1.97;;;12.20;99.90;;;;;;5029830;28;20229;-88
2022/10/06 07:50:42;;;;;;;7.67;1.80;;;12.20;99.90;;;;;;5017787;28;20249;-88
2022/10/06 07:53:09;;;;;;;5.37;1.57;;;12.20;99.90;;;;;;5017342;28;20278;-88
2022/10/06 07:55:44;;;;;;;9.43;2.00;;;12.30;99.90;;;;;;5019896;28;20236;-89
2022/10/06 07:58:22;;;;;;;11.73;2.30;;;12.30;99.90;;;;;;5015625;28;20212;-87
2022/10/06 08:00:52;;;;;;;7.57;2.10;;;12.40;99.90;;;;;;5020095;28;20288;-87
2022/10/06 08:03:20;;;;;;;10.97;2.37;;;12.40;99.90;;;;;;5020167;28;20226;-87
2022/10/06 08:05:48;;;;;;;6.63;2.03;;;12.50;99.90;;;;;;5015466;28;20241;-88
2022/10/06 08:08:15;;;;;;;9.70;2.27;;;12.50;99.90;;;;;;5019638;28;20251;-87
2022/10/06 08:10:43;;;;;;;8.80;2.00;;;12.60;99.90;;;;;;5019781;28;22506;-87
2022/10/06 08:13:10;;;;;;;9.53;2.13;;;12.60;99.90;;;;;;5015126;28;20726;-88
2022/10/06 08:15:38;;;;;;;12.20;2.40;;;12.70;99.90;;;;;;5023406;28;20724;-88
2022/10/06 08:18:06;;;;;;;9.93;2.50;;;12.80;99.90;;;;;;5010984;28;20265;-88
2022/10/06 08:20:33;;;;;;;7.87;1.90;;;12.80;99.90;;;;;;5016189;28;20729;-88
2022/10/06 08:23:00;;;;;;;7.00;1.70;;;13.00;99.90;;;;;;5018578;28;20308;-88
2022/10/06 08:25:26;;;;;;;9.93;2.13;;;13.10;99.90;;;;;;5035646;28;20236;-87
2022/10/06 08:27:53;;;;;;;7.43;1.60;;;13.30;99.90;;;;;;5019019;28;20229;-88
2022/10/06 08:30:22;;;;;;;7.40;2.07;;;13.50;99.90;;;;;;5019070;28;20237;-87
2022/10/06 08:32:50;;;;;;;9.77;2.27;;;13.90;99.90;;;;;;5013994;28;20232;-87
2022/10/06 08:35:17;;;;;;;8.40;1.77;;;14.40;99.90;;;;;;5020383;28;20313;-89
2022/10/06 08:37:44;;;;;;;10.23;2.37;;;14.80;99.90;;;;;;5032209;28;20231;-86
2022/10/06 08:40:14;;;;;;;8.23;2.20;;;15.30;99.90;;;;;;5019020;28;20655;-88
2022/10/06 08:42:45;;;;;;;13.00;1.90;;;15.80;99.90;;;;;;5015903;28;20227;-87
2022/10/06 08:45:18;;;;;;;8.50;2.20;;;16.20;99.90;;;;;;5018140;28;20618;-89
2022/10/06 08:47:56;;;;;;;10.23;2.10;;;16.60;99.90;;;;;;5017465;28;20728;-88
2022/10/06 08:50:26;;;;;;;8.43;2.00;;;17.00;99.90;;;;;;5021722;28;20234;-89
2022/10/06 08:53:03;;;;;;;7.83;2.03;;;17.40;99.90;;;;;;5020168;28;20229;-89
2022/10/06 08:55:37;;;;;;;5.70;2.13;;;17.90;99.00;;;;;;5020704;28;20239;-89
2022/10/06 08:58:21;;;;;;;7.97;1.87;;;18.20;98.70;;;;;;5014535;28;20689;-90
2022/10/06 09:00:48;;;;;;;6.63;1.80;;;18.60;98.00;;;;;;5036919;28;20232;-89
2022/10/06 09:03:23;;;;;;;9.30;2.70;;;18.90;97.90;;;;;;5013097;28;20244;-89
2022/10/06 09:05:52;;;;;;;9.00;2.43;;;19.20;97.20;;;;;;5017941;28;20343;-93
2022/10/06 09:08:38;;;;;;;8.43;2.20;;;19.40;97.20;;;;;;5017679;28;20224;-92
2022/10/06 09:11:21;;;;;;;6.27;1.80;;;19.50;95.60;;;;;;5019861;28;20225;-92
2022/10/06 09:13:52;;;;;;;10.37;2.53;;;19.60;95.60;;;;;;5023214;28;20228;-93
2022/10/06 09:16:26;;;;;;;7.43;1.77;;;19.60;95.30;;;;;;5018514;28;20228;-92
2022/10/06 09:19:01;;;;;;;5.60;2.07;;;19.60;95.30;;;;;;5018146;28;20235;-90
2022/10/06 09:21:34;;;;;;;7.37;1.73;;;19.60;95.40;;;;;;5030967;28;20231;-91
2022/10/06 09:24:07;;;;;;;6.37;2.03;;;19.70;95.60;;;;;;5018825;28;20238;-90
2022/10/06 09:26:34;;;;;;;6.97;2.40;;;19.90;95.10;;;;;;5018976;28;20271;-91
2022/10/06 09:29:01;;;;;;;7.87;2.20;;;20.10;95.20;;;;;;5013291;28;20303;-92
2022/10/06 09:31:30;;;;;;;9.43;2.17;;;20.30;95.00;;;;;;5021192;28;20225;-92
2022/10/06 09:34:03;;;;;;;9.45;2.25;;;20.50;94.40;;;;;;5018438;28;20229;-92
2022/10/06 09:36:30;;;;;;;5.22;1.55;;;20.70;94.30;;;;;;5012428;28;20220;-89
2022/10/06 09:38:59;;;;;;;7.43;1.90;;;20.80;94.30;;;;;;5019496;28;20298;-88
2022/10/06 09:41:41;;;;;;;5.73;1.83;;;21.10;93.60;;;;;;5035843;28;20769;-89
2022/10/06 09:44:29;;;;;;;6.03;1.90;;;21.20;92.20;;;;;;5028524;28;20233;-89
2022/10/06 09:47:00;;;;;;;6.22;1.88;;;21.20;91.70;;;;;;5016166;28;20766;-88
2022/10/06 09:52:15;;;;;;;8.32;2.20;;;21.40;91.90;;;;;;5033669;28;20225;-88
2022/10/06 09:54:46;;;;;;;5.07;1.70;;;21.40;92.20;;;;;;4997256;28;20282;-90
2022/10/06 09:57:18;;;;;;;6.97;1.85;;;21.50;91.40;;;;;;5016106;28;20275;-89
2022/10/06 09:59:56;;;;;;;7.95;1.73;;;21.60;91.40;;;;;;5021663;28;20239;-89
2022/10/06 10:02:35;;;;;;;8.10;1.70;;;21.50;90.80;;;;;;5031472;28;20231;-90
2022/10/06 10:05:07;;;;;;;6.28;1.92;;;21.50;90.40;;;;;;5034287;28;20228;-87
2022/10/06 10:07:36;;;;;;;6.93;2.17;;;21.50;90.50;;;;;;5022307;28;20282;-89
2022/10/06 10:10:23;;;;;;;7.80;2.10;;;21.40;90.20;;;;;;5015286;28;20232;-89
2022/10/06 10:12:50;;;;;;;7.85;1.90;;;21.30;90.20;;;;;;5012717;28;20227;-89
2022/10/06 10:15:26;;;;;;;7.85;2.22;;;21.30;90.70;;;;;;5016107;28;20243;-88
2022/10/06 10:17:54;;;;;;;8.52;2.05;;;21.30;89.00;;;;;;5017682;28;20225;-89
2022/10/06 10:23:24;;;;;;;7.88;2.00;;;21.20;87.80;;;;;;5014346;28;20312;-88
2022/10/06 10:26:07;;;;;;;8.88;2.15;;;21.10;88.60;;;;;;5020657;28;20225;-90
2022/10/06 10:28:55;;;;;;;4.25;1.65;;;20.90;87.00;;;;;;5019144;28;20224;-89
2022/10/06 10:31:30;;;;;;;7.45;2.15;;;20.70;87.30;;;;;;5021897;28;20243;-91
2022/10/06 10:34:06;;;;;;;7.60;1.65;;;20.50;87.10;;;;;;5017494;28;20216;-89
2022/10/06 10:36:39;;;;;;;9.73;1.88;;;20.50;88.90;;;;;;5022634;28;20228;-88
2022/10/06 10:39:15;;;;;;;8.93;2.28;;;20.50;88.90;;;;;;5024933;28;20228;-91
2022/10/06 10:41:47;;;;;;;7.18;1.92;;;20.50;88.60;;;;;;5025357;28;20261;-91
2022/10/06 10:44:27;;;;;;;8.50;1.65;;;20.50;88.10;;;;;;5036039;28;20224;-91
2022/10/06 10:47:04;;;;;;;5.93;2.08;;;20.40;87.70;;;;;;5026641;28;20221;-93
2022/10/06 10:49:34;;;;;;;6.53;1.73;;;20.30;87.60;;;;;;5026115;28;20275;-94
2022/10/06 10:52:10;;;;;;;7.85;2.13;;;20.40;88.40;;;;;;5026064;28;20877;-93
2022/10/06 10:54:46;;;;;;;8.38;1.73;;;20.40;88.60;;;;;;5026501;28;20235;-94
2022/10/06 10:57:19;;;;;;;8.50;2.13;;;20.60;89.30;;;;;;5014039;28;20223;-94
2022/10/06 10:59:58;;;;;;;9.18;2.10;;;20.90;89.40;;;;;;5027550;28;20311;-94
2022/10/06 11:02:28;;;;;;;6.82;2.00;;;21.00;86.40;;;;;;5031757;28;20221;-94
2022/10/06 11:05:01;;;;;;;4.85;1.80;;;21.20;85.60;;;;;;5021176;28;20612;-93
2022/10/06 11:07:37;;;;;;;5.22;2.13;;;21.20;83.20;;;;;;5015138;28;20229;-95
2022/10/06 11:10:25;;;;;;;7.72;1.77;;;21.10;83.80;;;;;;5029905;28;20309;-94
2022/10/06 11:13:14;;;;;;;8.20;2.00;;;21.00;83.50;;;;;;5014479;28;20685;-96
2022/10/06 11:15:59;;;;;;;6.72;1.77;;;20.70;83.90;;;;;;5036593;28;20252;-94
2022/10/06 11:18:42;;;;;;;6.05;1.73;;;20.40;84.30;;;;;;5023349;28;20225;-94
2022/10/06 11:21:13;;;;;;;6.88;1.83;;;20.20;85.00;;;;;;5021940;28;20323;-94
2022/10/06 11:23:50;;;;;;;7.32;1.90;;;20.20;85.50;;;;;;5018766;28;20217;-94
2022/10/06 11:26:39;;;;;;;8.07;2.00;;;20.30;86.20;;;;;;5018145;28;20221;-96
2022/10/06 11:29:15;;;;;;;6.82;1.80;;;20.30;85.70;;;;;;5037142;28;20224;-94
2022/10/06 11:31:51;;;;;;;7.47;1.50;;;20.40;85.10;;;;;;5023472;28;20221;-94
2022/10/06 11:34:18;;;;;;;7.45;1.80;;;20.40;85.00;;;;;;5020435;28;20298;-93
2022/10/06 11:36:49;;;;;;;12.80;2.07;;;20.30;83.20;;;;;;5024856;28;20232;-94
2022/10/06 11:39:29;;;;;;;6.37;1.77;;;20.00;82.70;;;;;;5025552;28;20720;-93
2022/10/06 11:42:04;;;;;;;7.37;1.50;;;19.70;81.70;;;;;;5033555;28;20631;-94
2022/10/06 11:44:37;;;;;;;7.47;1.80;;;19.40;83.20;;;;;;5031358;28;20225;-93
2022/10/06 11:47:06;;;;;;;8.10;1.80;;;19.10;84.30;;;;;;5017899;28;20336;-94
2022/10/06 11:49:58;;;;;;;7.57;1.80;;;18.90;84.60;;;;;;5020519;28;20228;-93
2022/10/06 11:52:46;;;;;;;5.00;1.60;;;18.60;85.40;;;;;;5010637;28;20220;-93
2022/10/06 11:55:22;;;;;;;6.00;1.90;;;18.40;86.30;;;;;;5038014;28;20299;-95
2022/10/06 11:58:12;;;;;;;7.37;1.60;;;18.30;88.00;;;;;;5026268;28;20620;-94
2022/10/06 12:00:51;;;;;;;4.77;1.57;;;18.20;88.20;;;;;;5008204;28;20236;-94
2022/10/06 12:03:49;;;;;;;6.53;1.80;;;18.30;88.60;;;;;;5023491;28;20347;-94
2022/10/06 12:06:54;;;;;;;6.90;1.57;;;18.60;88.00;;;;;;5023917;28;20216;-95
2022/10/06 12:09:48;;;;;;;4.90;1.63;;;18.90;86.80;;;;;;5024947;28;20705;-93
2022/10/06 12:12:43;;;;;;;6.43;1.40;;;19.30;87.90;;;;;;5015002;28;20243;-94
2022/10/06 12:15:42;;;;;;;5.00;1.50;;;19.80;87.70;;;;;;5038913;28;20229;-94
2022/10/06 12:18:35;;;;;;;5.57;1.48;;;20.10;86.20;;;;;;5018342;28;20243;-93
2022/10/06 12:21:27;;;;;;;7.85;2.05;;;20.40;85.30;;;;;;5022086;28;20224;-92
2022/10/06 12:24:06;;;;;;;4.93;1.50;;;20.60;84.60;;;;;;5003732;28;20316;-94
2022/10/06 12:26:45;;;;;;;6.55;1.70;;;20.60;83.60;;;;;;5028053;28;20220;-93
2022/10/06 12:29:35;;;;;;;5.30;1.38;;;20.50;82.50;;;;;;5021811;28;20229;-93
2022/10/06 12:32:15;;;;;;;5.28;1.55;;;20.40;82.70;;;;;;5024582;28;20317;-93
2022/10/06 12:34:51;;;;;;;8.07;1.70;;;20.40;82.00;;;;;;5018152;28;20232;-94
2022/10/06 12:37:45;;;;;;;5.47;1.70;;;20.50;81.90;;;;;;5022667;28;20247;-94
2022/10/06 12:40:47;;;;;;;5.45;1.23;;;20.50;80.70;;;;;;5019299;28;20252;-93
2022/10/06 12:43:55;;;;;;;3.90;1.60;;;20.50;81.10;;;;;;5012077;28;20240;-93
2022/10/06 12:46:48;;;;;;;7.07;1.60;;;20.60;80.60;;;;;;5024057;28;20733;-94
2022/10/06 12:49:55;;;;;;;4.38;1.55;;;20.60;80.40;;;;;;5009256;28;20228;-94
2022/10/06 12:52:50;;;;;;;5.75;1.83;;;20.60;80.00;;;;;;4948052;28;20265;-94
2022/10/06 12:55:42;;;;;;;8.00;1.42;;;20.60;79.20;;;;;;4985661;28;20229;-92
2022/10/06 12:58:18;;;;;;;7.37;1.40;;;20.50;78.70;;;;;;5030247;28;20222;-93
2022/10/06 13:00:48;;;;;;;5.75;1.48;;;20.40;79.00;;;;;;5036856;28;20717;-91
2022/10/06 13:03:19;;;;;;;5.27;1.33;;;20.20;79.20;;;;;;5020928;28;20240;-91
2022/10/06 13:05:51;;;;;;;7.22;1.65;;;20.00;79.10;;;;;;5022227;28;20225;-92
2022/10/06 13:08:22;;;;;;;8.47;1.60;;;19.80;79.40;;;;;;5039149;28;20994;-92
2022/10/06 13:10:49;;;;;;;4.97;1.57;;;19.60;79.90;;;;;;5025525;28;20745;-92
2022/10/06 13:13:22;;;;;;;5.63;1.50;;;19.50;80.90;;;;;;4991638;28;20232;-91
2022/10/06 13:16:04;;;;;;;;;;;;;;;;;;;;;
2022/10/06 13:18:41;;;;;;;5.00;1.50;;;19.30;81.30;;;;;;5018054;28;20528;-93
2022/10/06 13:21:14;;;;;;;5.23;1.30;;;19.40;81.60;;;;;;5023129;28;20233;-92
2022/10/06 13:23:48;;;;;;;5.10;1.20;;;19.50;82.00;;;;;;5016719;28;20286;-94
2022/10/06 13:26:23;;;;;;;7.83;1.93;;;19.50;80.90;;;;;;5028944;28;20426;-92
2022/10/06 13:28:52;;;;;;;4.37;1.33;;;19.50;80.90;;;;;;5014599;28;20258;-91